Greenwood, Illinois
Current Conditions -  °F | °C
As of 11:35 AM on Tuesday 21 Oct 2014 (Local Time) from KBUU Reporting Station
Overcast Overcast  
Wind Chill: 44°   Ceiling: 3600
Heat Index: 49°   Visibility: 10mi
Dew Point: 37°   Wind: 12mph
Humidity: 65%   Direction: 10°N
Pressure: 30.2"   Gusts: 16mph
Location:  42.3247°N, 88.4593°W
Report Text: KBUU 211635Z AUTO 01010G14KT 10SM SCT026 OVC036 09/03 A3020 RMK AO2 T00920030
Loading
Personal Weather Stations






























Interactive Weather Map
Tropical Storm Tracking
New forecast layout! Learn more

10-Day Weather Forecast

Advertisements
Track Severe Weather on mobile